createdAt,value
2022-08-26T00:00:06.808Z,34.78
2022-08-26T00:03:07.976Z,35.50
2022-08-26T00:05:59.810Z,31.52
2022-08-26T00:08:39.787Z,26.30
2022-08-26T00:11:26.795Z,33.90
2022-08-26T00:14:06.793Z,32.83
2022-08-26T00:16:55.886Z,27.40
2022-08-26T00:19:30.333Z,30.90
2022-08-26T00:22:21.664Z,35.05
2022-08-26T00:25:01.814Z,31.58
2022-08-26T00:27:50.783Z,38.55
2022-08-26T00:30:34.815Z,27.67
2022-08-26T00:33:22.803Z,35.33
2022-08-26T00:35:57.097Z,37.15
2022-08-26T00:38:44.818Z,41.15
2022-08-26T00:41:20.077Z,28.80
2022-08-26T00:44:07.802Z,25.38
2022-08-26T00:46:46.860Z,27.85
2022-08-26T00:49:44.827Z,27.17
2022-08-26T00:52:21.138Z,37.78
2022-08-26T00:55:20.281Z,30.90
2022-08-26T00:57:55.538Z,31.75
2022-08-26T01:00:45.212Z,24.45
2022-08-26T01:05:53.814Z,34.13
2022-08-26T01:08:41.851Z,30.23
2022-08-26T01:11:16.267Z,31.83
2022-08-26T01:14:05.830Z,32.85
2022-08-26T01:16:45.892Z,30.35
2022-08-26T01:19:31.865Z,35.10
2022-08-26T01:22:22.823Z,34.65
2022-08-26T01:25:15.815Z,25.05
2022-08-26T01:27:56.866Z,33.83
2022-08-26T01:30:37.896Z,33.30
2022-08-26T01:33:23.801Z,36.63
2022-08-26T01:36:05.347Z,36.92
2022-08-26T01:38:46.836Z,36.33
2022-08-26T01:41:53.519Z,27.73
2022-08-26T01:44:54.830Z,41.72
2022-08-26T01:47:43.843Z,34.85
2022-08-26T01:50:30.845Z,36.38
2022-08-26T01:53:29.819Z,30.87
2022-08-26T01:56:17.830Z,30.23
2022-08-26T01:58:56.977Z,33.80
2022-08-26T02:01:44.874Z,31.02
2022-08-26T02:04:35.008Z,34.40
2022-08-26T02:07:22.870Z,34.05
2022-08-26T02:10:07.851Z,30.98
2022-08-26T02:13:01.886Z,35.47
2022-08-26T02:15:50.850Z,27.60
2022-08-26T02:18:24.891Z,27.45
2022-08-26T02:21:13.857Z,37.00
2022-08-26T02:23:47.907Z,28.73
2022-08-26T02:26:34.907Z,26.77
2022-08-26T02:29:38.871Z,28.95
2022-08-26T02:32:25.869Z,36.58
2022-08-26T02:35:08.876Z,34.67
2022-08-26T02:38:10.016Z,32.42
2022-08-26T02:40:57.912Z,34.90
2022-08-26T02:43:32.953Z,37.95
2022-08-26T02:46:27.715Z,36.15
2022-08-26T02:49:03.960Z,37.10
2022-08-26T02:51:50.868Z,39.47
2022-08-26T02:54:26.938Z,39.38
2022-08-26T02:57:13.871Z,46.25
2022-08-26T02:59:47.956Z,43.65
2022-08-26T03:02:35.886Z,45.30
2022-08-26T03:05:09.978Z,47.53
2022-08-26T03:07:57.864Z,43.40
2022-08-26T03:10:40.877Z,43.97
2022-08-26T03:13:34.864Z,42.33
2022-08-26T03:16:21.934Z,45.13
2022-08-26T03:19:03.891Z,48.47
2022-08-26T03:21:58.238Z,52.63
2022-08-26T03:24:46.145Z,59.53
2022-08-26T03:27:27.898Z,53.05
2022-08-26T03:30:34.935Z,86.20
2022-08-26T03:33:11.265Z,69.95
2022-08-26T03:38:39.879Z,87.93
2022-08-26T03:41:27.888Z,111.10
2022-08-26T03:44:08.878Z,129.45
2022-08-26T03:47:02.877Z,111.85
2022-08-26T03:49:53.890Z,157.75
2022-08-26T03:52:28.226Z,117.20
2022-08-26T03:55:15.899Z,139.98
2022-08-26T03:57:49.971Z,117.88
2022-08-26T04:00:37.932Z,136.32
2022-08-26T04:03:19.235Z,111.00
2022-08-26T04:06:05.931Z,172.27
2022-08-26T04:08:39.953Z,145.50
2022-08-26T04:11:29.936Z,150.88
2022-08-26T04:14:13.904Z,131.13
2022-08-26T04:17:11.904Z,160.10
2022-08-26T04:20:01.891Z,196.70
2022-08-26T04:22:42.898Z,127.90
2022-08-26T04:25:29.902Z,157.73
2022-08-26T04:28:10.906Z,174.73
2022-08-26T04:31:04.919Z,106.90
2022-08-26T04:33:54.928Z,98.13
2022-08-26T04:36:29.107Z,121.78
2022-08-26T04:39:22.916Z,100.95
2022-08-26T04:42:03.927Z,162.02
2022-08-26T04:44:57.919Z,115.40
2022-08-26T04:47:44.917Z,95.13
2022-08-26T04:50:26.919Z,78.25
2022-08-26T04:53:20.914Z,91.45
2022-08-26T04:56:07.947Z,101.60
2022-08-26T04:58:48.912Z,93.90
2022-08-26T05:01:43.975Z,58.08
2022-08-26T05:04:30.977Z,76.18
2022-08-26T05:07:05.947Z,44.78
2022-08-26T05:09:52.955Z,36.63
2022-08-26T05:12:28.213Z,60.15
2022-08-26T05:15:16.925Z,53.65
2022-08-26T05:17:57.943Z,44.63
2022-08-26T05:20:54.543Z,41.05
2022-08-26T05:23:32.016Z,101.40
2022-08-26T05:26:22.954Z,47.53
2022-08-26T05:28:57.020Z,40.17
2022-08-26T05:31:43.959Z,40.53
2022-08-26T05:34:18.000Z,35.50
2022-08-26T05:39:41.242Z,32.10
2022-08-26T05:42:29.949Z,34.75
2022-08-26T05:45:10.983Z,28.05
2022-08-26T05:48:04.950Z,25.92
2022-08-26T05:50:55.953Z,35.75
2022-08-26T05:53:36.135Z,31.98
2022-08-26T05:56:17.973Z,30.35
2022-08-26T05:58:58.449Z,27.48
2022-08-26T06:01:40.037Z,31.90
2022-08-26T06:04:21.041Z,30.80
2022-08-26T06:07:00.981Z,28.40
2022-08-26T06:09:43.965Z,26.45
2022-08-26T06:12:27.008Z,19.98
2022-08-26T06:15:06.966Z,20.00
2022-08-26T06:17:53.978Z,29.08
2022-08-26T06:20:37.002Z,18.73
2022-08-26T06:23:38.097Z,17.17
2022-08-26T06:26:22.959Z,16.63
2022-08-26T06:29:11.001Z,17.02
2022-08-26T06:32:10.976Z,15.75
2022-08-26T06:34:58.008Z,19.98
2022-08-26T06:37:32.087Z,17.38
2022-08-26T06:40:22.036Z,20.02
2022-08-26T06:42:56.031Z,19.50
2022-08-26T06:45:42.976Z,21.33
2022-08-26T06:48:17.128Z,18.00
2022-08-26T06:51:20.025Z,12.27
2022-08-26T06:54:00.136Z,20.50
2022-08-26T06:56:50.023Z,21.15
2022-08-26T06:59:32.004Z,18.70
2022-08-26T07:02:28.589Z,14.25
2022-08-26T07:05:15.976Z,14.75
2022-08-26T07:07:50.269Z,17.88
2022-08-26T07:10:37.988Z,22.17
2022-08-26T07:13:12.440Z,26.30
2022-08-26T07:16:03.172Z,18.20
2022-08-26T07:18:45.969Z,20.10
2022-08-26T07:21:33.006Z,20.20
2022-08-26T07:24:07.059Z,31.40
2022-08-26T07:26:54.010Z,28.60
2022-08-26T07:29:36.001Z,25.55
2022-08-26T07:32:32.998Z,20.55
2022-08-26T07:35:21.025Z,20.92
2022-08-26T07:37:57.037Z,29.25
2022-08-26T07:40:44.122Z,28.45
2022-08-26T07:43:18.510Z,24.25
2022-08-26T07:46:07.031Z,29.83
2022-08-26T07:48:46.203Z,16.15
2022-08-26T07:51:33.993Z,21.65
2022-08-26T07:54:08.090Z,19.83
2022-08-26T07:56:56.164Z,24.48
2022-08-26T07:59:38.023Z,20.55
2022-08-26T08:02:25.040Z,22.85
2022-08-26T08:05:00.227Z,21.35
2022-08-26T08:07:47.035Z,21.10
2022-08-26T08:10:33.017Z,21.40
2022-08-26T08:13:28.007Z,14.57
2022-08-26T08:16:15.020Z,18.60
2022-08-26T08:18:49.101Z,19.75
2022-08-26T08:21:37.029Z,20.83
2022-08-26T08:24:18.038Z,26.55
2022-08-26T08:27:12.096Z,19.40
2022-08-26T08:30:01.035Z,26.38
2022-08-26T08:32:35.445Z,25.20
2022-08-26T08:35:24.027Z,16.30
2022-08-26T08:37:58.178Z,17.40
2022-08-26T08:40:48.038Z,26.60
2022-08-26T08:43:37.699Z,16.27
2022-08-26T08:46:26.088Z,22.13
2022-08-26T08:49:04.231Z,18.23
2022-08-26T08:51:52.055Z,16.75
2022-08-26T08:54:30.067Z,21.98
2022-08-26T08:57:55.053Z,15.43
2022-08-26T09:00:45.085Z,18.67
2022-08-26T09:03:45.049Z,18.17
2022-08-26T09:06:20.521Z,24.08
2022-08-26T09:09:09.020Z,15.98
2022-08-26T09:11:50.123Z,22.02
2022-08-26T09:14:30.048Z,23.23
2022-08-26T09:17:46.733Z,13.82
2022-08-26T09:20:35.065Z,22.45
2022-08-26T09:23:18.313Z,18.20
2022-08-26T09:26:02.064Z,17.25
2022-08-26T09:28:43.193Z,19.23
2022-08-26T09:31:32.096Z,14.00
2022-08-26T09:34:39.072Z,17.42
2022-08-26T09:37:20.085Z,20.02
2022-08-26T09:40:24.081Z,16.27
2022-08-26T09:43:03.437Z,20.27
2022-08-26T09:45:55.896Z,14.30
2022-08-26T09:48:36.571Z,18.17
2022-08-26T09:51:34.061Z,11.63
2022-08-26T09:54:08.256Z,17.48
2022-08-26T09:56:56.094Z,12.23
2022-08-26T09:59:30.851Z,12.05
2022-08-26T10:02:53.731Z,9.00
2022-08-26T10:05:56.446Z,14.10
2022-08-26T10:08:54.179Z,12.52
2022-08-26T10:12:13.093Z,9.15
2022-08-26T10:14:59.218Z,12.25
2022-08-26T10:17:53.109Z,10.18
2022-08-26T10:20:39.211Z,14.77
2022-08-26T10:23:31.115Z,12.18
2022-08-26T10:26:22.178Z,11.57
2022-08-26T10:29:20.121Z,12.80
2022-08-26T10:32:08.308Z,11.15
2022-08-26T10:34:54.124Z,10.07
2022-08-26T10:37:46.760Z,11.90
2022-08-26T10:40:56.099Z,12.82
2022-08-26T10:43:55.095Z,11.52
2022-08-26T10:46:40.994Z,11.98
2022-08-26T10:49:30.106Z,11.23
2022-08-26T10:52:24.105Z,8.65
2022-08-26T10:55:48.111Z,11.77
2022-08-26T10:58:36.449Z,13.73
2022-08-26T11:01:51.010Z,9.95
2022-08-26T11:04:48.255Z,11.85
2022-08-26T11:08:03.137Z,12.75
2022-08-26T11:10:58.962Z,8.63
2022-08-26T11:14:05.134Z,12.90
2022-08-26T11:16:49.339Z,11.82
2022-08-26T11:20:00.108Z,11.50
2022-08-26T11:22:47.824Z,10.95
2022-08-26T11:25:32.107Z,9.85
2022-08-26T11:28:13.585Z,13.65
2022-08-26T11:30:58.019Z,12.88
2022-08-26T11:33:51.053Z,14.20
2022-08-26T11:36:46.113Z,11.05
2022-08-26T11:39:52.650Z,7.75
2022-08-26T11:42:37.826Z,6.22
2022-08-26T11:45:38.141Z,7.20
2022-08-26T11:48:44.361Z,9.13
2022-08-26T11:51:40.556Z,23.10
2022-08-26T11:54:35.107Z,13.25
2022-08-26T11:57:18.150Z,5.65
2022-08-26T12:00:22.430Z,8.23
2022-08-26T12:03:08.410Z,9.60
2022-08-26T12:06:00.158Z,8.55
2022-08-26T12:08:34.531Z,10.68
2022-08-26T12:11:27.128Z,11.63
2022-08-26T12:14:07.429Z,10.70
2022-08-26T12:16:55.232Z,8.63
2022-08-26T12:19:32.918Z,8.15
2022-08-26T12:22:37.147Z,9.05
2022-08-26T12:25:11.616Z,11.88
2022-08-26T12:27:59.154Z,8.95
2022-08-26T12:30:32.764Z,9.45
2022-08-26T12:33:26.202Z,8.98
2022-08-26T12:36:02.020Z,9.73
2022-08-26T12:38:50.215Z,11.20
2022-08-26T12:41:56.192Z,9.40
2022-08-26T12:44:39.363Z,12.38
2022-08-26T12:47:42.156Z,9.70
2022-08-26T12:50:59.178Z,10.88
2022-08-26T12:53:34.862Z,14.25
2022-08-26T12:56:42.224Z,10.30
2022-08-26T12:59:23.392Z,10.63
2022-08-26T13:02:11.316Z,8.13
2022-08-26T13:04:46.231Z,6.60
2022-08-26T13:07:39.196Z,10.30
2022-08-26T13:10:34.279Z,13.77
2022-08-26T13:13:22.222Z,8.18
2022-08-26T13:15:56.259Z,10.73
2022-08-26T13:18:44.285Z,14.43
2022-08-26T13:21:21.800Z,13.07
2022-08-26T13:24:09.241Z,8.90
2022-08-26T13:26:45.902Z,14.73
2022-08-26T13:29:33.240Z,9.02
2022-08-26T13:32:07.948Z,8.40
2022-08-26T13:35:05.703Z,9.68
2022-08-26T13:37:46.322Z,10.50
2022-08-26T13:40:34.820Z,9.70
2022-08-26T13:43:08.950Z,10.27
2022-08-26T13:45:58.225Z,13.65
2022-08-26T13:48:39.216Z,12.85
2022-08-26T13:51:31.259Z,11.68
2022-08-26T13:54:12.220Z,10.52
2022-08-26T13:56:59.251Z,9.30
2022-08-26T13:59:32.922Z,6.65
2022-08-26T14:02:19.260Z,8.25
2022-08-26T14:04:54.845Z,10.32
2022-08-26T14:07:42.234Z,13.88
2022-08-26T14:10:16.050Z,16.27
2022-08-26T14:13:05.299Z,9.57
2022-08-26T14:15:41.044Z,12.60
2022-08-26T14:18:31.259Z,6.28
2022-08-26T14:21:20.266Z,7.75
2022-08-26T14:24:01.298Z,10.13
2022-08-26T14:26:41.873Z,12.32
2022-08-26T14:29:29.275Z,12.15
2022-08-26T14:32:22.959Z,8.85
2022-08-26T14:35:10.231Z,10.93
2022-08-26T14:37:43.999Z,18.52
2022-08-26T14:40:33.880Z,12.00
2022-08-26T14:43:15.251Z,6.18
2022-08-26T14:46:03.315Z,9.68
2022-08-26T14:48:36.861Z,7.57
2022-08-26T14:51:24.260Z,10.00
2022-08-26T14:54:13.146Z,7.38
2022-08-26T14:57:02.312Z,6.28
2022-08-26T14:59:41.424Z,10.57
2022-08-26T15:02:32.937Z,12.50
2022-08-26T15:05:08.692Z,7.68
2022-08-26T15:07:56.280Z,12.57
2022-08-26T15:10:29.820Z,11.43
2022-08-26T15:13:16.269Z,6.15
2022-08-26T15:15:49.906Z,13.52
2022-08-26T15:18:38.279Z,6.95
2022-08-26T15:24:07.278Z,6.30
2022-08-26T15:26:47.296Z,11.13
2022-08-26T15:29:36.294Z,8.27
2022-08-26T15:32:09.932Z,8.18
2022-08-26T15:34:57.300Z,9.23
2022-08-26T15:37:30.860Z,11.45
2022-08-26T15:40:18.343Z,9.60
2022-08-26T15:43:11.366Z,8.95
2022-08-26T15:46:03.362Z,12.68
2022-08-26T15:48:36.910Z,8.35
2022-08-26T15:51:45.575Z,17.90
2022-08-26T15:54:22.687Z,8.25
2022-08-26T15:57:12.352Z,9.20
2022-08-26T15:59:46.850Z,10.38
2022-08-26T16:02:34.295Z,9.18
2022-08-26T16:05:08.287Z,6.97
2022-08-26T16:07:56.310Z,16.07
2022-08-26T16:10:37.302Z,9.63
2022-08-26T16:13:18.847Z,14.90
2022-08-26T16:16:00.358Z,12.27
2022-08-26T16:18:43.384Z,10.48
2022-08-26T16:21:31.347Z,11.82
2022-08-26T16:24:20.300Z,10.40
2022-08-26T16:26:54.568Z,12.45
2022-08-26T16:29:42.326Z,13.55
2022-08-26T16:32:31.279Z,19.15
2022-08-26T16:35:05.341Z,9.10
2022-08-26T16:37:52.322Z,15.38
2022-08-26T16:40:26.439Z,11.30
2022-08-26T16:43:15.258Z,12.32
2022-08-26T16:45:56.525Z,13.98
2022-08-26T16:48:36.318Z,19.98
2022-08-26T16:51:28.394Z,17.52
2022-08-26T16:54:09.329Z,9.57
2022-08-26T16:56:50.416Z,11.07
2022-08-26T16:59:30.352Z,6.30
2022-08-26T17:02:11.973Z,11.85
2022-08-26T17:04:53.329Z,7.88
2022-08-26T17:07:35.599Z,12.20
2022-08-26T17:10:16.317Z,11.95
2022-08-26T17:12:57.454Z,8.85
2022-08-26T17:15:37.399Z,7.93
2022-08-26T17:18:17.496Z,8.57
2022-08-26T17:20:59.343Z,8.10
2022-08-26T17:23:39.503Z,13.90
2022-08-26T17:26:19.318Z,10.45
2022-08-26T17:29:00.376Z,7.70
2022-08-26T17:31:41.326Z,8.48
2022-08-26T17:34:24.372Z,58.35
2022-08-26T17:37:04.297Z,41.17
2022-08-26T17:39:52.331Z,31.80
2022-08-26T17:42:32.288Z,20.88
2022-08-26T17:45:13.475Z,18.08
2022-08-26T17:48:03.349Z,16.25
2022-08-26T17:50:37.517Z,52.22
2022-08-26T17:53:25.340Z,71.97
2022-08-26T17:56:00.354Z,98.70
2022-08-26T17:58:51.281Z,82.90
2022-08-26T18:01:28.506Z,94.53
2022-08-26T18:04:16.356Z,126.63
2022-08-26T18:06:50.401Z,49.25
2022-08-26T18:09:38.310Z,28.65
2022-08-26T18:12:19.340Z,22.13
2022-08-26T18:15:06.310Z,18.75
2022-08-26T18:17:40.461Z,17.75
2022-08-26T18:20:27.325Z,13.40
2022-08-26T18:23:01.374Z,15.27
2022-08-26T18:25:49.324Z,18.77
2022-08-26T18:28:23.585Z,14.88
2022-08-26T18:31:13.490Z,16.50
2022-08-26T18:33:47.390Z,18.17
2022-08-26T18:36:36.348Z,17.77
2022-08-26T18:39:11.409Z,26.80
2022-08-26T18:41:59.327Z,23.17
2022-08-26T18:44:33.447Z,22.25
2022-08-26T18:47:21.338Z,28.77
2022-08-26T18:49:55.407Z,24.10
2022-08-26T18:52:42.345Z,24.27
2022-08-26T18:55:17.410Z,21.77
2022-08-26T18:58:04.351Z,15.70
2022-08-26T19:00:39.421Z,25.85
2022-08-26T19:03:26.371Z,21.80
2022-08-26T19:06:00.455Z,18.27
2022-08-26T19:08:49.741Z,22.00
2022-08-26T19:11:31.380Z,19.90
2022-08-26T19:14:21.346Z,18.65
2022-08-26T19:16:56.534Z,20.67
2022-08-26T19:19:44.365Z,15.70
2022-08-26T19:22:19.910Z,18.58
2022-08-26T19:25:07.367Z,17.45
2022-08-26T19:27:41.468Z,20.50
2022-08-26T19:30:29.367Z,18.20
2022-08-26T19:33:16.978Z,21.38
2022-08-26T19:35:58.393Z,13.80
2022-08-26T19:38:40.021Z,14.90
2022-08-26T19:41:23.721Z,15.38
2022-08-26T19:44:08.058Z,18.45
2022-08-26T19:46:47.909Z,13.75
2022-08-26T19:49:34.961Z,16.35
2022-08-26T19:52:15.910Z,17.23
2022-08-26T19:55:03.961Z,15.95
2022-08-26T19:57:40.031Z,14.30
2022-08-26T20:00:28.929Z,16.05
2022-08-26T20:03:03.314Z,27.13
2022-08-26T20:05:49.939Z,18.88
2022-08-26T20:08:23.517Z,22.33
2022-08-26T20:11:15.922Z,15.40
2022-08-26T20:13:55.936Z,19.25
2022-08-26T20:16:43.991Z,15.68
2022-08-26T20:19:37.643Z,14.43
2022-08-26T20:22:25.980Z,16.05
2022-08-26T20:25:05.991Z,23.48
2022-08-26T20:27:54.005Z,17.52
2022-08-26T20:30:27.704Z,13.38
2022-08-26T20:33:14.985Z,16.80
2022-08-26T20:35:54.989Z,18.25
2022-08-26T20:38:35.036Z,14.80
2022-08-26T20:41:15.002Z,14.88
2022-08-26T20:43:56.068Z,14.90
2022-08-26T20:46:35.987Z,13.70
2022-08-26T20:49:18.704Z,11.90
2022-08-26T20:51:59.998Z,13.73
2022-08-26T20:54:41.054Z,18.55
2022-08-26T20:57:21.009Z,13.55
2022-08-26T21:00:01.075Z,23.02
2022-08-26T21:02:40.996Z,15.05
2022-08-26T21:05:22.051Z,13.70
2022-08-26T21:08:03.029Z,18.48
2022-08-26T21:10:45.583Z,18.20
2022-08-26T21:13:26.025Z,13.10
2022-08-26T21:16:07.137Z,15.00
2022-08-26T21:18:47.010Z,10.90
2022-08-26T21:21:28.164Z,13.95
2022-08-26T21:24:08.012Z,20.23
2022-08-26T21:26:49.138Z,14.32
2022-08-26T21:29:30.021Z,10.80
2022-08-26T21:32:12.414Z,13.00
2022-08-26T21:34:57.003Z,14.50
2022-08-26T21:37:38.071Z,18.83
2022-08-26T21:40:19.074Z,8.85
2022-08-26T21:43:07.016Z,11.93
2022-08-26T21:45:41.393Z,11.18
2022-08-26T21:48:29.568Z,13.95
2022-08-26T21:51:16.017Z,12.10
2022-08-26T21:53:58.170Z,17.58
2022-08-26T21:56:39.002Z,20.30
2022-08-26T21:59:20.107Z,11.00
2022-08-26T22:02:01.091Z,11.85
2022-08-26T22:04:48.130Z,11.25
2022-08-26T22:07:36.047Z,11.23
2022-08-26T22:10:10.096Z,10.93
2022-08-26T22:12:57.022Z,10.95
2022-08-26T22:15:33.061Z,15.20
2022-08-26T22:18:20.049Z,10.73
2022-08-26T22:20:55.508Z,11.70
2022-08-26T22:23:43.028Z,13.75
2022-08-26T22:26:25.451Z,15.68
2022-08-26T22:29:14.027Z,20.00
2022-08-26T22:31:55.159Z,20.35
2022-08-26T22:34:49.038Z,22.48
2022-08-26T22:37:36.024Z,16.40
2022-08-26T22:40:10.246Z,20.17
2022-08-26T22:42:59.983Z,12.25
2022-08-26T22:45:34.393Z,13.43
2022-08-26T22:48:23.055Z,16.67
2022-08-26T22:51:00.286Z,12.05
2022-08-26T22:53:47.078Z,15.48
2022-08-26T22:56:28.040Z,14.65
2022-08-26T22:59:23.058Z,11.15
2022-08-26T23:02:11.111Z,8.50
2022-08-26T23:04:54.081Z,11.68
2022-08-26T23:07:49.049Z,10.90
2022-08-26T23:10:36.094Z,16.35
2022-08-26T23:13:11.115Z,15.27
2022-08-26T23:16:08.095Z,10.52
2022-08-26T23:18:42.157Z,24.98
2022-08-26T23:21:29.047Z,16.67
2022-08-26T23:24:03.158Z,12.77
2022-08-26T23:26:51.062Z,12.02
2022-08-26T23:29:25.122Z,10.38
2022-08-26T23:32:12.091Z,15.57
2022-08-26T23:35:01.560Z,9.00
2022-08-26T23:37:52.096Z,13.85
2022-08-26T23:40:36.281Z,14.52
2022-08-26T23:43:23.099Z,17.02
2022-08-26T23:45:57.191Z,12.00
2022-08-26T23:48:45.074Z,15.13
2022-08-26T23:51:43.626Z,11.35
2022-08-26T23:54:26.069Z,10.23
2022-08-26T23:57:06.204Z,12.63
2022-08-26T23:59:47.068Z,13.88
